Time;durP1;ratioP1;P1;durP2;ratioP2;P2;SDS_P1;SDS_P2;PMS_P1;PMS_P2;Temp;Humidity;BMP_temperature;BMP_pressure;BME280_temperature;BME280_humidity;BME280_pressure;Samples;Min_cycle;Max_cycle;Signal;HPM_P1;HPM_P2
2022/07/08 00:00:19;;;;;;;2.90;2.60;;;;;;;;;;5020056;28;20231;-67
2022/07/08 00:02:47;;;;;;;2.93;2.70;;;;;;;;;;5015841;28;20202;-67
2022/07/08 00:05:15;;;;;;;5.60;4.17;;;;;;;;;;5021123;28;20234;-67
2022/07/08 00:07:43;;;;;;;3.47;2.60;;;;;;;;;;5016395;28;20207;-66
2022/07/08 00:10:10;;;;;;;4.47;3.50;;;;;;;;;;5018274;28;20746;-67
2022/07/08 00:12:38;;;;;;;2.90;2.70;;;;;;;;;;5023049;28;20214;-65
2022/07/08 00:15:05;;;;;;;3.00;2.77;;;;;;;;;;5021959;28;20219;-65
2022/07/08 00:17:33;;;;;;;8.13;2.80;;;;;;;;;;5011862;28;20206;-67
2022/07/08 00:20:00;;;;;;;2.70;2.50;;;;;;;;;;5015337;28;20292;-67
2022/07/08 00:22:28;;;;;;;4.87;2.50;;;;;;;;;;5018812;28;20875;-68
2022/07/08 00:24:55;;;;;;;2.50;2.30;;;;;;;;;;5018797;28;20227;-66
2022/07/08 00:27:23;;;;;;;3.80;2.57;;;;;;;;;;5010765;28;20943;-69
2022/07/08 00:29:50;;;;;;;2.60;2.40;;;;;;;;;;5011418;28;20202;-66
2022/07/08 00:32:18;;;;;;;5.03;4.53;;;;;;;;;;5023398;28;20199;-65
2022/07/08 00:34:50;;;;;;;7.73;5.57;;;;;;;;;;5023621;28;21814;-65
2022/07/08 00:37:17;;;;;;;5.83;3.30;;;;;;;;;;5023821;28;20206;-68
2022/07/08 00:39:44;;;;;;;5.10;3.83;;;;;;;;;;5013176;28;20218;-67
2022/07/08 00:42:12;;;;;;;3.20;2.90;;;;;;;;;;5019796;28;20233;-65
2022/07/08 00:44:39;;;;;;;2.97;2.40;;;;;;;;;;5024068;28;20199;-67
2022/07/08 00:47:07;;;;;;;3.40;2.23;;;;;;;;;;5028106;28;20203;-67
2022/07/08 00:49:34;;;;;;;3.53;2.60;;;;;;;;;;5022798;28;20195;-66
2022/07/08 00:52:02;;;;;;;3.17;2.60;;;;;;;;;;5021870;28;20215;-67
2022/07/08 00:54:29;;;;;;;3.53;2.73;;;;;;;;;;5022721;28;20241;-66
2022/07/08 00:56:58;;;;;;;2.83;2.63;;;;;;;;;;5024182;28;20207;-66
2022/07/08 00:59:27;;;;;;;2.67;2.47;;;;;;;;;;5026572;28;20665;-67
2022/07/08 01:01:57;;;;;;;3.77;2.87;;;;;;;;;;5021753;28;20239;-67
2022/07/08 01:04:25;;;;;;;2.90;2.60;;;;;;;;;;5028855;28;20230;-67
2022/07/08 01:06:52;;;;;;;2.77;2.47;;;;;;;;;;5024326;28;20561;-67
2022/07/08 01:09:20;;;;;;;2.87;2.67;;;;;;;;;;5012531;28;20199;-67
2022/07/08 01:11:48;;;;;;;3.10;2.60;;;;;;;;;;5021740;28;20234;-67
2022/07/08 01:14:16;;;;;;;4.23;3.00;;;;;;;;;;5019975;28;20203;-67
2022/07/08 01:16:43;;;;;;;3.17;2.83;;;;;;;;;;5010805;28;20237;-67
2022/07/08 01:19:11;;;;;;;3.60;3.30;;;;;;;;;;5017838;28;20297;-67
2022/07/08 01:21:38;;;;;;;5.07;3.53;;;;;;;;;;5020474;28;20261;-67
2022/07/08 01:24:06;;;;;;;5.67;3.27;;;;;;;;;;5019241;28;20199;-67
2022/07/08 01:26:33;;;;;;;4.40;3.63;;;;;;;;;;5020016;28;20234;-67
2022/07/08 01:29:01;;;;;;;6.07;3.60;;;;;;;;;;5016573;28;20206;-67
2022/07/08 01:31:28;;;;;;;5.97;3.80;;;;;;;;;;5020486;28;20217;-67
2022/07/08 01:33:56;;;;;;;6.17;4.20;;;;;;;;;;5022370;28;20211;-67
2022/07/08 01:36:23;;;;;;;8.67;4.23;;;;;;;;;;5012886;28;20721;-67
2022/07/08 01:38:50;;;;;;;5.83;4.00;;;;;;;;;;5013184;28;20211;-67
2022/07/08 01:41:18;;;;;;;6.83;3.80;;;;;;;;;;5023351;28;20238;-67
2022/07/08 01:43:45;;;;;;;5.83;3.80;;;;;;;;;;5021747;28;20210;-67
2022/07/08 01:46:13;;;;;;;9.27;4.00;;;;;;;;;;5017527;28;20280;-68
2022/07/08 01:48:40;;;;;;;6.47;4.23;;;;;;;;;;5017047;28;20239;-67
2022/07/08 01:51:08;;;;;;;7.77;3.80;;;;;;;;;;5018341;28;20812;-67
2022/07/08 01:53:35;;;;;;;6.23;3.73;;;;;;;;;;5012467;28;20199;-67
2022/07/08 01:56:02;;;;;;;11.53;3.60;;;;;;;;;;5020051;28;20249;-67
2022/07/08 01:58:30;;;;;;;11.37;3.37;;;;;;;;;;5017298;28;20210;-67
2022/07/08 02:00:57;;;;;;;7.07;3.13;;;;;;;;;;5022160;28;20233;-67
2022/07/08 02:03:25;;;;;;;12.80;3.53;;;;;;;;;;5015967;28;20246;-68
2022/07/08 02:05:52;;;;;;;5.90;3.03;;;;;;;;;;5014086;28;20701;-67
2022/07/08 02:08:23;;;;;;;8.07;3.50;;;;;;;;;;5018939;28;20206;-67
2022/07/08 02:13:38;;;;;;;6.73;3.40;;;;;;;;;;4991322;28;20211;-67
2022/07/08 02:16:05;;;;;;;9.27;3.20;;;;;;;;;;5022976;28;20226;-67
2022/07/08 02:18:34;;;;;;;6.40;3.10;;;;;;;;;;5023821;28;20219;-67
2022/07/08 02:21:02;;;;;;;9.00;3.53;;;;;;;;;;5014280;28;20235;-67
2022/07/08 02:23:29;;;;;;;6.97;3.20;;;;;;;;;;5018305;28;20198;-66
2022/07/08 02:25:57;;;;;;;9.87;3.70;;;;;;;;;;5022396;28;20215;-67
2022/07/08 02:28:25;;;;;;;7.03;3.20;;;;;;;;;;5018619;28;20265;-67
2022/07/08 02:30:53;;;;;;;6.93;3.50;;;;;;;;;;5022468;28;20215;-67
2022/07/08 02:33:20;;;;;;;5.27;3.63;;;;;;;;;;5022112;28;20211;-67
2022/07/08 02:35:48;;;;;;;11.23;4.00;;;;;;;;;;5021657;28;20228;-67
2022/07/08 02:38:15;;;;;;;12.13;4.43;;;;;;;;;;5019385;28;20214;-65
2022/07/08 02:40:42;;;;;;;9.97;5.63;;;;;;;;;;5021136;28;20213;-65
2022/07/08 02:43:10;;;;;;;11.90;4.93;;;;;;;;;;5020244;28;22750;-67
2022/07/08 02:45:38;;;;;;;11.80;4.80;;;;;;;;;;5026068;28;20222;-66
2022/07/08 02:48:06;;;;;;;7.87;5.27;;;;;;;;;;5027712;28;20215;-67
2022/07/08 02:50:34;;;;;;;9.70;5.80;;;;;;;;;;5014420;28;20556;-67
2022/07/08 02:53:01;;;;;;;10.40;6.00;;;;;;;;;;5019653;28;20207;-65
2022/07/08 02:55:28;;;;;;;9.43;5.63;;;;;;;;;;5016538;28;20273;-66
2022/07/08 02:57:55;;;;;;;10.70;5.53;;;;;;;;;;5000553;28;20199;-67
2022/07/08 03:00:23;;;;;;;7.93;5.57;;;;;;;;;;5022888;28;20211;-66
2022/07/08 03:02:50;;;;;;;10.63;5.97;;;;;;;;;;5013325;28;20240;-66
2022/07/08 03:05:18;;;;;;;11.90;5.70;;;;;;;;;;5023688;28;20231;-67
2022/07/08 03:07:45;;;;;;;8.07;5.47;;;;;;;;;;5016865;28;20214;-67
2022/07/08 03:10:13;;;;;;;11.00;5.37;;;;;;;;;;5018376;28;20252;-68
2022/07/08 03:12:40;;;;;;;9.73;5.70;;;;;;;;;;5019187;28;20202;-67
2022/07/08 03:15:08;;;;;;;10.80;5.30;;;;;;;;;;5022372;28;20729;-66
2022/07/08 03:17:36;;;;;;;11.67;5.90;;;;;;;;;;5019895;28;20241;-65
2022/07/08 03:20:04;;;;;;;13.93;5.47;;;;;;;;;;5020772;28;20241;-67
2022/07/08 03:22:31;;;;;;;7.83;5.53;;;;;;;;;;5021663;28;20230;-67
2022/07/08 03:24:58;;;;;;;8.73;5.10;;;;;;;;;;5020637;28;22312;-65
2022/07/08 03:27:26;;;;;;;9.30;4.63;;;;;;;;;;5022563;28;20203;-67
2022/07/08 03:29:53;;;;;;;6.70;4.67;;;;;;;;;;5027477;28;20199;-66
2022/07/08 03:32:22;;;;;;;13.93;5.57;;;;;;;;;;5024290;28;20343;-66
2022/07/08 03:34:50;;;;;;;9.40;4.80;;;;;;;;;;5021846;28;20704;-67
2022/07/08 03:37:17;;;;;;;8.17;5.20;;;;;;;;;;5020445;28;20253;-66
2022/07/08 03:39:45;;;;;;;8.53;4.53;;;;;;;;;;5012751;28;20284;-65
2022/07/08 03:42:12;;;;;;;12.97;6.07;;;;;;;;;;5020650;28;20231;-66
2022/07/08 03:44:40;;;;;;;9.30;4.67;;;;;;;;;;5016933;28;20210;-66
2022/07/08 03:47:08;;;;;;;10.13;5.10;;;;;;;;;;5022680;28;20203;-66
2022/07/08 03:49:36;;;;;;;7.53;4.93;;;;;;;;;;5021876;28;20199;-67
2022/07/08 03:52:03;;;;;;;11.70;5.70;;;;;;;;;;5019363;28;20206;-67
2022/07/08 03:54:31;;;;;;;8.77;4.97;;;;;;;;;;5023680;28;20218;-67
2022/07/08 03:56:58;;;;;;;9.87;4.60;;;;;;;;;;5016965;28;20245;-67
2022/07/08 03:59:26;;;;;;;11.07;5.30;;;;;;;;;;5022622;28;20607;-68
2022/07/08 04:01:53;;;;;;;9.03;4.63;;;;;;;;;;5023354;28;20583;-67
2022/07/08 04:04:21;;;;;;;11.77;5.10;;;;;;;;;;5021576;28;20234;-65
2022/07/08 04:06:49;;;;;;;10.07;4.90;;;;;;;;;;5023178;28;20692;-65
2022/07/08 04:09:17;;;;;;;12.00;5.13;;;;;;;;;;5013617;28;20210;-66
2022/07/08 04:11:47;;;;;;;9.43;4.40;;;;;;;;;;5027982;28;20202;-66
2022/07/08 04:14:14;;;;;;;10.17;5.20;;;;;;;;;;5028587;28;20222;-65
2022/07/08 04:16:41;;;;;;;12.30;6.70;;;;;;;;;;5019231;28;20284;-66
2022/07/08 04:19:09;;;;;;;8.53;5.00;;;;;;;;;;5028247;28;20206;-65
2022/07/08 04:21:37;;;;;;;9.83;4.83;;;;;;;;;;5021871;28;20325;-67
2022/07/08 04:24:04;;;;;;;8.70;4.80;;;;;;;;;;5020715;28;20207;-67
2022/07/08 04:26:31;;;;;;;7.23;4.40;;;;;;;;;;5020725;28;20692;-67
2022/07/08 04:29:00;;;;;;;8.47;4.60;;;;;;;;;;5022772;28;20203;-66
2022/07/08 04:31:28;;;;;;;10.33;5.30;;;;;;;;;;5025400;28;20199;-67
2022/07/08 04:33:55;;;;;;;7.77;4.50;;;;;;;;;;5019775;28;20219;-66
2022/07/08 04:36:23;;;;;;;8.23;4.03;;;;;;;;;;5016052;28;20318;-66
2022/07/08 04:38:50;;;;;;;9.70;4.50;;;;;;;;;;5017220;28;20269;-66
2022/07/08 04:41:18;;;;;;;7.87;4.30;;;;;;;;;;5018040;28;20263;-67
2022/07/08 04:43:45;;;;;;;9.70;4.20;;;;;;;;;;5025567;28;20203;-67
2022/07/08 04:46:13;;;;;;;7.97;4.23;;;;;;;;;;5026746;28;20625;-67
2022/07/08 04:48:41;;;;;;;7.90;4.50;;;;;;;;;;5028094;28;20210;-66
2022/07/08 04:51:08;;;;;;;10.73;5.00;;;;;;;;;;5026784;28;20265;-67
2022/07/08 04:53:36;;;;;;;7.17;4.17;;;;;;;;;;5029801;28;20190;-67
2022/07/08 04:56:03;;;;;;;9.73;4.57;;;;;;;;;;5020803;28;20223;-67
2022/07/08 04:58:31;;;;;;;7.53;4.20;;;;;;;;;;5026284;28;20206;-67
2022/07/08 05:00:59;;;;;;;7.67;3.70;;;;;;;;;;5025324;28;20219;-67
2022/07/08 05:03:26;;;;;;;10.37;4.23;;;;;;;;;;5027790;28;20241;-66
2022/07/08 05:06:01;;;;;;;12.03;4.30;;;;;;;;;;5024007;28;20266;-66
2022/07/08 05:08:29;;;;;;;7.03;4.10;;;;;;;;;;5027129;28;20203;-67
2022/07/08 05:10:56;;;;;;;7.17;4.20;;;;;;;;;;5027053;28;20199;-67
2022/07/08 05:13:24;;;;;;;9.93;3.80;;;;;;;;;;5025984;28;20621;-66
2022/07/08 05:15:51;;;;;;;8.27;4.03;;;;;;;;;;5027220;28;20716;-66
2022/07/08 05:18:19;;;;;;;6.53;3.80;;;;;;;;;;5022849;28;20210;-67
2022/07/08 05:20:47;;;;;;;4.93;3.67;;;;;;;;;;5022143;28;20206;-67
2022/07/08 05:23:15;;;;;;;8.60;3.63;;;;;;;;;;5027359;28;20587;-66
2022/07/08 05:25:42;;;;;;;9.07;4.37;;;;;;;;;;5026985;28;20630;-66
2022/07/08 05:28:10;;;;;;;9.33;3.70;;;;;;;;;;5014659;28;20307;-67
2022/07/08 05:30:37;;;;;;;13.87;4.00;;;;;;;;;;5020478;28;20668;-67
2022/07/08 05:33:04;;;;;;;5.43;3.17;;;;;;;;;;5019412;28;20261;-67
2022/07/08 05:35:32;;;;;;;6.37;3.37;;;;;;;;;;5018589;28;20243;-67
2022/07/08 05:37:59;;;;;;;5.57;2.93;;;;;;;;;;5013507;28;20207;-67
2022/07/08 05:40:27;;;;;;;10.33;3.13;;;;;;;;;;5011998;28;20214;-66
2022/07/08 05:42:54;;;;;;;6.27;2.63;;;;;;;;;;5012610;28;20598;-67
2022/07/08 05:45:22;;;;;;;6.03;2.38;;;;;;;;;;5019799;28;20276;-67
2022/07/08 05:47:49;;;;;;;4.97;2.15;;;;;;;;;;5015503;28;20215;-67
2022/07/08 05:50:17;;;;;;;4.90;2.00;;;;;;;;;;5024216;28;20203;-68
2022/07/08 05:52:44;;;;;;;5.78;2.47;;;;;;;;;;5008417;28;20214;-67
2022/07/08 05:55:11;;;;;;;5.45;1.92;;;;;;;;;;5008444;28;20747;-68
2022/07/08 05:57:39;;;;;;;5.25;2.03;;;;;;;;;;5004740;28;21165;-68
2022/07/08 06:00:07;;;;;;;7.72;1.85;;;;;;;;;;5008077;28;20207;-67
2022/07/08 06:02:34;;;;;;;7.93;2.00;;;;;;;;;;5015499;28;20218;-68
2022/07/08 06:05:01;;;;;;;5.65;2.05;;;;;;;;;;5005061;28;20231;-69
2022/07/08 06:07:29;;;;;;;5.88;2.22;;;;;;;;;;5003809;28;20210;-67
2022/07/08 06:09:56;;;;;;;4.95;2.00;;;;;;;;;;5015290;28;20210;-66
2022/07/08 06:12:23;;;;;;;5.28;2.10;;;;;;;;;;5014007;28;20204;-66
2022/07/08 06:14:50;;;;;;;5.05;1.92;;;;;;;;;;5019513;28;20759;-66
2022/07/08 06:17:18;;;;;;;4.25;2.33;;;;;;;;;;5017612;28;20207;-66
2022/07/08 06:19:46;;;;;;;5.53;2.30;;;;;;;;;;5020956;28;20245;-66
2022/07/08 06:22:13;;;;;;;5.57;2.58;;;;;;;;;;5020133;28;20227;-66
2022/07/08 06:24:40;;;;;;;5.35;2.92;;;;;;;;;;5015943;28;20203;-67
2022/07/08 06:27:08;;;;;;;6.03;2.83;;;;;;;;;;5018513;28;20235;-66
2022/07/08 06:29:35;;;;;;;6.00;2.60;;;;;;;;;;5018837;28;20210;-66
2022/07/08 06:32:04;;;;;;;4.85;2.60;;;;;;;;;;5013646;28;20341;-68
2022/07/08 06:34:31;;;;;;;7.93;3.13;;;;;;;;;;5021237;28;20324;-66
2022/07/08 06:36:59;;;;;;;5.35;2.92;;;;;;;;;;5018369;28;20203;-67
2022/07/08 06:39:26;;;;;;;7.65;3.30;;;;;;;;;;5014344;28;20261;-66
2022/07/08 06:41:54;;;;;;;6.80;3.42;;;;;;;;;;5022049;28;20203;-67
2022/07/08 06:44:21;;;;;;;7.17;3.80;;;;;;;;;;5019252;28;20646;-66
2022/07/08 06:46:48;;;;;;;7.70;3.77;;;;;;;;;;5017679;28;20227;-67
2022/07/08 06:49:16;;;;;;;7.07;3.70;;;;;;;;;;5017165;28;20657;-66
2022/07/08 06:51:43;;;;;;;7.20;4.07;;;;;;;;;;5022352;28;20202;-66
2022/07/08 06:56:57;;;;;;;6.20;3.50;;;;;;;;;;5018777;28;20206;-66
2022/07/08 06:59:24;;;;;;;7.80;3.07;;;;;;;;;;5018327;28;20222;-66
2022/07/08 07:01:52;;;;;;;6.53;3.27;;;;;;;;;;5006505;28;20226;-66
2022/07/08 07:04:20;;;;;;;8.03;3.20;;;;;;;;;;5015322;28;20195;-68
2022/07/08 07:06:47;;;;;;;6.87;3.30;;;;;;;;;;5016400;28;20377;-67
2022/07/08 07:09:15;;;;;;;6.23;2.83;;;;;;;;;;5018965;28;20656;-67
2022/07/08 07:11:45;;;;;;;8.27;3.40;;;;;;;;;;5022767;28;20634;-68
2022/07/08 07:14:13;;;;;;;9.37;3.20;;;;;;;;;;5019631;28;20206;-67
2022/07/08 07:16:40;;;;;;;6.87;3.13;;;;;;;;;;5014043;28;20215;-67
2022/07/08 07:19:08;;;;;;;6.27;2.70;;;;;;;;;;5011966;28;20207;-67
2022/07/08 07:21:35;;;;;;;7.33;3.30;;;;;;;;;;5019602;28;20576;-67
2022/07/08 07:24:03;;;;;;;5.47;2.80;;;;;;;;;;5019220;28;21175;-68
2022/07/08 07:26:30;;;;;;;7.40;3.07;;;;;;;;;;5013361;28;20234;-67
2022/07/08 07:28:58;;;;;;;6.17;2.73;;;;;;;;;;5017783;28;20203;-66
2022/07/08 07:31:25;;;;;;;7.13;3.10;;;;;;;;;;5023797;28;20210;-65
2022/07/08 07:33:53;;;;;;;4.93;3.10;;;;;;;;;;5021418;28;20214;-67
2022/07/08 07:36:20;;;;;;;8.63;4.33;;;;;;;;;;5021259;28;20234;-67
2022/07/08 07:38:47;;;;;;;9.77;3.20;;;;;;;;;;5020645;28;20227;-68
2022/07/08 07:41:16;;;;;;;5.57;2.90;;;;;;;;;;5017507;28;20613;-67
2022/07/08 07:43:43;;;;;;;3.87;2.90;;;;;;;;;;5009569;28;20275;-67
2022/07/08 07:46:10;;;;;;;6.00;2.97;;;;;;;;;;5016557;28;20231;-67
2022/07/08 07:48:38;;;;;;;9.23;3.10;;;;;;;;;;5022465;28;20214;-68
2022/07/08 07:51:05;;;;;;;10.50;3.40;;;;;;;;;;5018325;28;20207;-67
2022/07/08 07:53:33;;;;;;;6.97;3.03;;;;;;;;;;5015029;28;20758;-65
2022/07/08 07:56:04;;;;;;;6.23;2.73;;;;;;;;;;5013723;28;20226;-68
2022/07/08 07:58:32;;;;;;;5.43;2.77;;;;;;;;;;5010529;28;20489;-68
2022/07/08 08:00:59;;;;;;;6.30;3.17;;;;;;;;;;5015166;28;20210;-67
2022/07/08 08:03:27;;;;;;;7.80;2.90;;;;;;;;;;5019604;28;20250;-67
2022/07/08 08:05:54;;;;;;;7.53;3.17;;;;;;;;;;5024791;28;20654;-67
2022/07/08 08:08:24;;;;;;;7.40;3.10;;;;;;;;;;5019744;28;20207;-67
2022/07/08 08:10:52;;;;;;;7.83;2.83;;;;;;;;;;5022671;28;20297;-67
2022/07/08 08:13:20;;;;;;;7.63;3.13;;;;;;;;;;5018505;28;20218;-67
2022/07/08 08:15:47;;;;;;;5.63;3.00;;;;;;;;;;5015738;28;20327;-68
2022/07/08 08:18:15;;;;;;;8.20;2.93;;;;;;;;;;5013152;28;20661;-68
2022/07/08 08:20:43;;;;;;;10.93;2.77;;;;;;;;;;5013783;28;20212;-67
2022/07/08 08:23:10;;;;;;;7.63;2.60;;;;;;;;;;5011997;28;20309;-69
2022/07/08 08:25:48;;;;;;;5.57;2.63;;;;;;;;;;5016184;28;20218;-68
2022/07/08 08:28:16;;;;;;;6.10;2.77;;;;;;;;;;5023025;28;20207;-68
2022/07/08 08:30:44;;;;;;;5.65;2.80;;;;;;;;;;5014028;28;20207;-67
2022/07/08 08:33:11;;;;;;;6.00;3.33;;;;;;;;;;5015470;28;20218;-68
2022/07/08 08:35:39;;;;;;;6.22;2.50;;;;;;;;;;5010077;28;20235;-67
2022/07/08 08:38:06;;;;;;;5.40;2.67;;;;;;;;;;5009524;28;20851;-68
2022/07/08 08:40:34;;;;;;;8.13;2.77;;;;;;;;;;5016082;28;20745;-67
2022/07/08 08:43:01;;;;;;;5.37;2.53;;;;;;;;;;5027241;28;20280;-66
2022/07/08 08:45:33;;;;;;;7.67;2.63;;;;;;;;;;5016481;28;20226;-69
2022/07/08 08:48:06;;;;;;;3.88;2.60;;;;;;;;;;5019903;28;20223;-68
2022/07/08 08:53:23;;;;;;;4.37;2.43;;;;;;;;;;5026960;28;20225;-66
2022/07/08 08:55:51;;;;;;;8.07;2.60;;;;;;;;;;5031397;28;20261;-68
2022/07/08 08:58:19;;;;;;;7.13;3.10;;;;;;;;;;5022643;28;20219;-66
2022/07/08 09:00:47;;;;;;;6.90;3.20;;;;;;;;;;5027258;28;20719;-67
2022/07/08 09:03:15;;;;;;;5.13;2.60;;;;;;;;;;5015414;28;20280;-68
2022/07/08 09:05:43;;;;;;;3.93;2.77;;;;;;;;;;5023924;28;20280;-67
2022/07/08 09:08:10;;;;;;;5.87;2.40;;;;;;;;;;5020893;28;20214;-67
2022/07/08 09:10:37;;;;;;;5.37;2.40;;;;;;;;;;5020243;28;20206;-68
2022/07/08 09:13:05;;;;;;;6.40;2.90;;;;;;;;;;5010422;28;20241;-67
2022/07/08 09:15:33;;;;;;;5.00;2.83;;;;;;;;;;5024001;28;20231;-68
2022/07/08 09:18:02;;;;;;;7.63;4.17;;;;;;;;;;5019991;28;20214;-67
2022/07/08 09:20:46;;;;;;;8.30;2.78;;;;;;;;;;5024006;28;20203;-67
2022/07/08 09:23:13;;;;;;;4.70;2.45;;;;;;;;;;5022535;28;20237;-67
2022/07/08 09:25:41;;;;;;;9.17;2.87;;;;;;;;;;5017955;28;20242;-67
2022/07/08 09:28:09;;;;;;;6.35;3.00;;;;;;;;;;5014956;28;20196;-67
2022/07/08 09:30:39;;;;;;;6.68;2.65;;;;;;;;;;5006437;28;20268;-67
2022/07/08 09:33:09;;;;;;;6.95;2.65;;;;;;;;;;5008999;28;20215;-68
2022/07/08 09:35:38;;;;;;;3.55;1.90;;;;;;;;;;5004643;28;20235;-66
2022/07/08 09:38:07;;;;;;;6.07;2.58;;;;;;;;;;5003039;28;20277;-67
2022/07/08 09:40:35;;;;;;;6.47;2.78;;;;;;;;;;4991962;28;20731;-67
2022/07/08 09:43:12;;;;;;;5.55;2.08;;;;;;;;;;4989768;28;20578;-67
2022/07/08 09:45:39;;;;;;;5.90;2.40;;;;;;;;;;4995427;28;20257;-67
2022/07/08 09:48:08;;;;;;;4.88;1.95;;;;;;;;;;5005158;28;20207;-68
2022/07/08 09:50:37;;;;;;;6.95;2.72;;;;;;;;;;5008232;28;20203;-68
2022/07/08 09:53:28;;;;;;;5.15;2.22;;;;;;;;;;5009291;28;20304;-68
2022/07/08 09:55:58;;;;;;;6.38;2.35;;;;;;;;;;5003436;28;20326;-67
2022/07/08 09:58:30;;;;;;;3.90;2.28;;;;;;;;;;5019794;28;20210;-67
2022/07/08 10:00:58;;;;;;;4.45;2.15;;;;;;;;;;5021094;28;20211;-68
2022/07/08 10:03:26;;;;;;;6.38;2.15;;;;;;;;;;5036251;28;20231;-68
2022/07/08 10:05:57;;;;;;;5.15;2.13;;;;;;;;;;5018716;28;20743;-68
2022/07/08 10:08:24;;;;;;;4.20;2.20;;;;;;;;;;5019997;28;20213;-67
2022/07/08 10:10:53;;;;;;;4.97;2.20;;;;;;;;;;5017440;28;20207;-67
2022/07/08 10:13:21;;;;;;;3.05;1.75;;;;;;;;;;5015367;28;20337;-67
2022/07/08 10:15:55;;;;;;;5.63;2.13;;;;;;;;;;5016049;28;20226;-67
2022/07/08 10:18:32;;;;;;;4.93;2.38;;;;;;;;;;5009281;28;20588;-67
2022/07/08 10:20:59;;;;;;;6.80;2.50;;;;;;;;;;5030900;28;20210;-67
2022/07/08 10:23:32;;;;;;;3.50;2.30;;;;;;;;;;5014714;28;20235;-67
2022/07/08 10:26:00;;;;;;;5.50;2.38;;;;;;;;;;5011390;28;20226;-67
2022/07/08 10:28:37;;;;;;;5.57;2.10;;;;;;;;;;5018217;28;20573;-67
2022/07/08 10:31:32;;;;;;;8.10;5.05;;;;;;;;;;5030857;28;20588;-67
2022/07/08 10:34:00;;;;;;;4.18;2.00;;;;;;;;;;5012945;28;20640;-67
2022/07/08 10:36:28;;;;;;;3.08;1.88;;;;;;;;;;5016939;28;20659;-67
2022/07/08 10:38:55;;;;;;;5.70;2.38;;;;;;;;;;5020965;28;20268;-67
2022/07/08 10:41:25;;;;;;;4.95;2.03;;;;;;;;;;5024385;28;20214;-67
2022/07/08 10:44:02;;;;;;;4.68;2.30;;;;;;;;;;5017610;28;20729;-67
2022/07/08 10:46:30;;;;;;;5.43;2.00;;;;;;;;;;5007638;28;20250;-67
2022/07/08 10:49:01;;;;;;;8.82;2.20;;;;;;;;;;5015418;28;20376;-67
2022/07/08 10:51:32;;;;;;;5.85;2.08;;;;;;;;;;5009684;28;20203;-67
2022/07/08 10:54:09;;;;;;;4.75;1.70;;;;;;;;;;5012863;28;20222;-67
2022/07/08 10:56:56;;;;;;;3.42;1.80;;;;;;;;;;5018317;28;20231;-67
2022/07/08 10:59:27;;;;;;;7.15;2.53;;;;;;;;;;5012179;28;20218;-66
2022/07/08 11:01:58;;;;;;;4.85;2.42;;;;;;;;;;5012517;28;20716;-68
2022/07/08 11:04:31;;;;;;;6.97;2.38;;;;;;;;;;5022149;28;20231;-68
2022/07/08 11:07:17;;;;;;;3.75;2.53;;;;;;;;;;5013745;28;20204;-68
2022/07/08 11:09:46;;;;;;;3.22;2.10;;;;;;;;;;5005377;28;20269;-67
2022/07/08 11:12:14;;;;;;;6.22;2.00;;;;;;;;;;5008087;28;20226;-67
2022/07/08 11:14:45;;;;;;;5.88;2.67;;;;;;;;;;5014899;28;20219;-68
2022/07/08 11:17:18;;;;;;;6.65;2.40;;;;;;;;;;5023620;28;20232;-67
2022/07/08 11:19:47;;;;;;;15.77;9.95;;;;;;;;;;5018792;28;20214;-68
2022/07/08 11:22:14;;;;;;;6.50;2.10;;;;;;;;;;5016733;28;20238;-67
2022/07/08 11:24:53;;;;;;;3.97;2.28;;;;;;;;;;5018720;28;20230;-67
2022/07/08 11:27:27;;;;;;;5.22;2.10;;;;;;;;;;5012445;28;22967;-67
2022/07/08 11:29:55;;;;;;;6.32;2.00;;;;;;;;;;5013689;28;20221;-67
2022/07/08 11:32:24;;;;;;;3.85;1.70;;;;;;;;;;5009413;28;20238;-67
2022/07/08 11:34:52;;;;;;;4.10;1.77;;;;;;;;;;5007909;28;20231;-67
2022/07/08 11:37:19;;;;;;;3.63;1.90;;;;;;;;;;5016189;28;20202;-67
2022/07/08 11:39:46;;;;;;;9.60;2.22;;;;;;;;;;5022818;28;20815;-67
2022/07/08 11:42:15;;;;;;;4.22;1.95;;;;;;;;;;5017523;28;20218;-67
2022/07/08 11:44:43;;;;;;;4.50;2.00;;;;;;;;;;5004879;28;20222;-66
2022/07/08 11:47:13;;;;;;;5.75;2.60;;;;;;;;;;5008983;28;20223;-66
2022/07/08 11:49:42;;;;;;;4.60;2.13;;;;;;;;;;5011389;28;20199;-67
2022/07/08 11:52:10;;;;;;;6.63;2.33;;;;;;;;;;5012942;28;20207;-68
2022/07/08 11:54:37;;;;;;;4.97;2.28;;;;;;;;;;5015787;28;20207;-67
2022/07/08 11:57:05;;;;;;;3.50;2.03;;;;;;;;;;5009045;28;20269;-66
2022/07/08 11:59:33;;;;;;;3.90;2.05;;;;;;;;;;5022941;28;20555;-67
2022/07/08 12:02:02;;;;;;;4.65;1.80;;;;;;;;;;5025253;28;20211;-67
2022/07/08 12:04:29;;;;;;;3.05;1.83;;;;;;;;;;5015507;28;20231;-68
2022/07/08 12:07:01;;;;;;;4.45;1.92;;;;;;;;;;5015421;28;20211;-67
2022/07/08 12:09:30;;;;;;;4.40;1.88;;;;;;;;;;5013125;28;20257;-68
2022/07/08 12:11:59;;;;;;;6.03;2.00;;;;;;;;;;5014478;28;20207;-67
2022/07/08 12:14:33;;;;;;;6.25;1.80;;;;;;;;;;5010719;28;20206;-68
2022/07/08 12:17:00;;;;;;;4.13;1.98;;;;;;;;;;5019857;28;20221;-67
2022/07/08 12:19:27;;;;;;;5.63;2.65;;;;;;;;;;5012531;28;20199;-69
2022/07/08 12:21:55;;;;;;;8.25;2.90;;;;;;;;;;5018254;28;20218;-67
2022/07/08 12:24:24;;;;;;;6.72;2.70;;;;;;;;;;5020761;28;20226;-66
2022/07/08 12:26:59;;;;;;;6.05;2.38;;;;;;;;;;5021187;28;20226;-66
2022/07/08 12:29:27;;;;;;;7.93;3.92;;;;;;;;;;5016968;28;20214;-67
2022/07/08 12:31:55;;;;;;;5.90;1.90;;;;;;;;;;5025573;28;20879;-67
2022/07/08 12:34:23;;;;;;;4.05;1.85;;;;;;;;;;5022479;28;20413;-68
2022/07/08 12:36:51;;;;;;;3.22;1.67;;;;;;;;;;5011410;28;20242;-66
2022/07/08 12:39:23;;;;;;;4.32;1.70;;;;;;;;;;5012489;28;20298;-67
2022/07/08 12:42:01;;;;;;;3.35;1.40;;;;;;;;;;5014008;28;20633;-66
2022/07/08 12:44:32;;;;;;;3.35;1.75;;;;;;;;;;5016124;28;20223;-68
2022/07/08 12:47:00;;;;;;;4.57;1.70;;;;;;;;;;5016486;28;22057;-67
2022/07/08 12:49:29;;;;;;;5.25;1.80;;;;;;;;;;5018783;28;20293;-68
2022/07/08 12:51:57;;;;;;;4.72;1.70;;;;;;;;;;5023859;28;20202;-67
2022/07/08 12:54:24;;;;;;;3.95;1.67;;;;;;;;;;5015202;28;20223;-67
2022/07/08 12:56:53;;;;;;;2.67;1.15;;;;;;;;;;5024956;28;20227;-67
2022/07/08 12:59:20;;;;;;;5.40;1.58;;;;;;;;;;5014769;28;20202;-66
2022/07/08 13:01:48;;;;;;;3.33;1.50;;;;;;;;;;5015416;28;20215;-67
2022/07/08 13:04:15;;;;;;;3.80;1.50;;;;;;;;;;5014302;28;20223;-67
2022/07/08 13:06:43;;;;;;;4.95;1.80;;;;;;;;;;5019764;28;20231;-67
2022/07/08 13:09:11;;;;;;;2.53;1.40;;;;;;;;;;5019622;28;20225;-67
2022/07/08 13:11:39;;;;;;;3.60;1.52;;;;;;;;;;5019756;28;22957;-67
2022/07/08 13:14:07;;;;;;;3.83;1.58;;;;;;;;;;5021323;28;20212;-66
2022/07/08 13:16:34;;;;;;;3.85;1.48;;;;;;;;;;5022707;28;20227;-67
2022/07/08 13:19:03;;;;;;;5.00;1.70;;;;;;;;;;5019962;28;20684;-67
2022/07/08 13:21:30;;;;;;;5.35;1.70;;;;;;;;;;5014878;28;20282;-68
2022/07/08 13:24:02;;;;;;;3.35;1.48;;;;;;;;;;5019576;28;20222;-67
2022/07/08 13:26:30;;;;;;;4.78;1.80;;;;;;;;;;5018214;28;20235;-68
2022/07/08 13:28:57;;;;;;;4.05;1.70;;;;;;;;;;5020449;28;20225;-68
2022/07/08 13:31:25;;;;;;;2.00;1.38;;;;;;;;;;5015119;28;20633;-65
2022/07/08 13:33:53;;;;;;;3.10;1.38;;;;;;;;;;5019784;28;21965;-67
2022/07/08 13:36:21;;;;;;;4.60;1.40;;;;;;;;;;5010118;28;20313;-68
2022/07/08 13:38:48;;;;;;;5.50;1.90;;;;;;;;;;5015158;28;20207;-67
2022/07/08 13:41:16;;;;;;;3.55;1.38;;;;;;;;;;5016955;28;20246;-69
2022/07/08 13:43:45;;;;;;;3.38;1.48;;;;;;;;;;5008989;28;20217;-69
2022/07/08 13:46:12;;;;;;;4.53;2.28;;;;;;;;;;5007754;28;20229;-68
2022/07/08 13:48:39;;;;;;;5.00;1.77;;;;;;;;;;5010758;28;20221;-67
2022/07/08 13:51:07;;;;;;;3.47;1.58;;;;;;;;;;5016015;28;20198;-66
2022/07/08 13:53:34;;;;;;;3.55;1.40;;;;;;;;;;5014188;28;20211;-67
2022/07/08 13:56:02;;;;;;;3.90;1.67;;;;;;;;;;5008393;28;20241;-66
2022/07/08 13:58:29;;;;;;;4.60;1.73;;;;;;;;;;5017441;28;20207;-68
2022/07/08 14:00:58;;;;;;;2.22;1.33;;;;;;;;;;5021699;28;20644;-67
2022/07/08 14:03:25;;;;;;;5.38;2.17;;;;;;;;;;5019093;28;20203;-68
2022/07/08 14:05:53;;;;;;;7.47;3.65;;;;;;;;;;5024995;28;20700;-68
2022/07/08 14:08:21;;;;;;;2.70;1.98;;;;;;;;;;5021718;28;20210;-66
2022/07/08 14:11:06;;;;;;;2.42;1.70;;;;;;;;;;5021246;28;20207;-66
2022/07/08 14:13:34;;;;;;;5.78;1.85;;;;;;;;;;5019044;28;20198;-68
2022/07/08 14:16:02;;;;;;;5.68;1.67;;;;;;;;;;5019365;28;20226;-68
2022/07/08 14:18:30;;;;;;;4.63;1.70;;;;;;;;;;5020435;28;21384;-66
2022/07/08 14:20:58;;;;;;;3.70;1.50;;;;;;;;;;5026522;28;20206;-68
2022/07/08 14:23:26;;;;;;;3.70;1.48;;;;;;;;;;5023134;28;20211;-68
2022/07/08 14:25:53;;;;;;;3.17;1.38;;;;;;;;;;5027779;28;20230;-68
2022/07/08 14:28:20;;;;;;;3.25;1.30;;;;;;;;;;5029549;28;20205;-67
2022/07/08 14:30:48;;;;;;;3.53;1.30;;;;;;;;;;5022582;28;20835;-68
2022/07/08 14:33:21;;;;;;;4.63;1.38;;;;;;;;;;5023494;28;20203;-68
2022/07/08 14:35:48;;;;;;;4.70;1.38;;;;;;;;;;5019526;28;20246;-67
2022/07/08 14:38:16;;;;;;;2.55;1.23;;;;;;;;;;5021322;28;20210;-68
2022/07/08 14:40:45;;;;;;;4.45;1.55;;;;;;;;;;5021784;28;20598;-68
2022/07/08 14:43:14;;;;;;;3.47;1.42;;;;;;;;;;5024318;28;20615;-68
2022/07/08 14:45:42;;;;;;;3.97;1.80;;;;;;;;;;5019550;28;20239;-69
2022/07/08 14:48:09;;;;;;;2.22;1.10;;;;;;;;;;5022584;28;20211;-68
2022/07/08 14:50:43;;;;;;;3.08;1.65;;;;;;;;;;5039107;28;20563;-68
2022/07/08 14:53:11;;;;;;;3.85;1.60;;;;;;;;;;5019188;28;20199;-68
2022/07/08 14:55:39;;;;;;;2.53;1.20;;;;;;;;;;5018632;28;20223;-67